createdAt,value
2022-08-28T00:00:30.684Z,82.21
2022-08-28T00:02:58.634Z,80.91
2022-08-28T00:05:29.299Z,80.57
2022-08-28T00:07:57.935Z,80.58
2022-08-28T00:10:26.919Z,80.30
2022-08-28T00:12:57.537Z,80.23
2022-08-28T00:15:32.424Z,80.35
2022-08-28T00:18:00.920Z,79.13
2022-08-28T00:20:29.296Z,79.07
2022-08-28T00:22:57.608Z,79.49
2022-08-28T00:25:27.375Z,79.38
2022-08-28T00:27:57.575Z,79.81
2022-08-28T00:30:26.010Z,79.45
2022-08-28T00:32:55.951Z,79.33
2022-08-28T00:35:24.557Z,79.28
2022-08-28T00:37:55.018Z,79.05
2022-08-28T00:40:28.751Z,79.16
2022-08-28T00:43:04.985Z,78.53
2022-08-28T00:45:39.281Z,79.12
2022-08-28T00:48:08.303Z,79.67
2022-08-28T00:51:00.494Z,80.16
2022-08-28T00:53:33.047Z,80.15
2022-08-28T00:56:08.633Z,81.04
2022-08-28T00:58:43.786Z,80.56
2022-08-28T01:01:13.171Z,80.26
2022-08-28T01:03:43.537Z,80.55
2022-08-28T01:06:14.902Z,80.77
2022-08-28T01:08:46.293Z,80.42
2022-08-28T01:11:19.705Z,80.61
2022-08-28T01:13:48.734Z,80.48
2022-08-28T01:16:19.285Z,80.27
2022-08-28T01:18:48.379Z,80.70
2022-08-28T01:21:22.049Z,80.90
2022-08-28T01:24:02.109Z,80.91
2022-08-28T01:26:29.892Z,80.70
2022-08-28T01:29:01.763Z,81.13
2022-08-28T01:31:31.700Z,80.90
2022-08-28T01:33:59.508Z,80.83
2022-08-28T01:36:29.154Z,80.59
2022-08-28T01:39:02.824Z,80.61
2022-08-28T01:41:30.928Z,80.38
2022-08-28T01:43:59.308Z,80.41
2022-08-28T01:46:27.294Z,80.95
2022-08-28T01:48:55.024Z,80.33
2022-08-28T01:51:24.597Z,80.62
2022-08-28T01:53:52.824Z,81.05
2022-08-28T01:56:20.909Z,82.07
2022-08-28T01:58:48.706Z,81.33
2022-08-28T02:01:21.329Z,81.01
2022-08-28T02:03:49.881Z,80.76
2022-08-28T02:06:17.976Z,80.39
2022-08-28T02:08:46.835Z,81.02
2022-08-28T02:11:15.209Z,80.52
2022-08-28T02:13:43.069Z,80.48
2022-08-28T02:16:11.480Z,80.32
2022-08-28T02:18:39.619Z,80.95
2022-08-28T02:21:08.481Z,80.35
2022-08-28T02:23:38.243Z,80.59
2022-08-28T02:26:06.743Z,80.51
2022-08-28T02:28:34.893Z,80.53
2022-08-28T02:31:02.689Z,80.06
2022-08-28T02:33:30.206Z,79.48
2022-08-28T02:35:57.782Z,79.65
2022-08-28T02:38:25.354Z,79.61
2022-08-28T02:40:52.919Z,79.72
2022-08-28T02:43:20.412Z,79.60
2022-08-28T02:45:49.408Z,79.68
2022-08-28T02:48:17.624Z,79.62
2022-08-28T02:50:46.596Z,79.13
2022-08-28T02:53:14.268Z,79.41
2022-08-28T02:55:41.762Z,79.72
2022-08-28T02:58:09.926Z,79.42
2022-08-28T03:00:37.728Z,79.71
2022-08-28T03:03:05.435Z,79.35
2022-08-28T03:05:33.242Z,79.97
2022-08-28T03:08:01.073Z,80.11
2022-08-28T03:10:28.701Z,80.14
2022-08-28T03:12:56.175Z,79.86
2022-08-28T03:15:23.935Z,79.72
2022-08-28T03:17:51.528Z,79.68
2022-08-28T03:20:19.244Z,79.44
2022-08-28T03:23:05.637Z,79.33
2022-08-28T03:25:33.277Z,79.89
2022-08-28T03:28:01.673Z,79.65
2022-08-28T03:30:29.515Z,80.44
2022-08-28T03:32:57.024Z,80.57
2022-08-28T03:35:24.683Z,80.68
2022-08-28T03:37:52.815Z,81.40
2022-08-28T03:40:20.571Z,81.96
2022-08-28T03:42:53.033Z,82.07
2022-08-28T03:45:22.086Z,81.85
2022-08-28T03:47:50.851Z,82.49
2022-08-28T03:50:19.768Z,82.45
2022-08-28T03:52:47.697Z,82.87
2022-08-28T03:55:16.787Z,82.97
2022-08-28T03:57:44.551Z,83.26
2022-08-28T04:00:13.358Z,83.20
2022-08-28T04:02:42.822Z,83.31
2022-08-28T04:05:11.297Z,83.98
2022-08-28T04:07:40.169Z,84.52
2022-08-28T04:10:08.079Z,84.03
2022-08-28T04:12:36.994Z,84.41
2022-08-28T04:15:06.963Z,85.23
2022-08-28T04:17:37.985Z,84.42
2022-08-28T04:20:07.167Z,84.46
2022-08-28T04:22:35.485Z,84.35
2022-08-28T04:25:04.198Z,84.65
2022-08-28T04:27:32.033Z,84.61
2022-08-28T04:29:59.579Z,84.34
2022-08-28T04:32:27.176Z,84.43
2022-08-28T04:34:54.750Z,84.63
2022-08-28T04:37:22.946Z,84.63
2022-08-28T04:39:55.697Z,84.36
2022-08-28T04:42:23.477Z,84.40
2022-08-28T04:44:51.160Z,84.46
2022-08-28T04:47:18.635Z,83.81
2022-08-28T04:49:46.136Z,84.29
2022-08-28T04:52:13.662Z,83.70
2022-08-28T04:54:41.375Z,83.71
2022-08-28T04:57:08.938Z,83.20
2022-08-28T04:59:37.111Z,83.54
2022-08-28T05:02:05.723Z,83.45
2022-08-28T05:04:33.207Z,83.95
2022-08-28T05:07:00.845Z,83.46
2022-08-28T05:09:28.724Z,82.90
2022-08-28T05:11:56.567Z,82.78
2022-08-28T05:14:24.282Z,81.74
2022-08-28T05:16:53.091Z,80.95
2022-08-28T05:19:21.621Z,80.73
2022-08-28T05:21:49.133Z,80.22
2022-08-28T05:24:17.309Z,79.66
2022-08-28T05:26:48.293Z,78.81
2022-08-28T05:29:17.693Z,77.63
2022-08-28T05:31:46.382Z,76.93
2022-08-28T05:34:15.243Z,75.63
2022-08-28T05:36:43.069Z,75.84
2022-08-28T05:39:11.880Z,75.28
2022-08-28T05:41:41.907Z,74.73
2022-08-28T05:44:11.757Z,74.47
2022-08-28T05:46:42.643Z,73.44
2022-08-28T05:49:10.679Z,72.52
2022-08-28T05:51:41.272Z,72.52
2022-08-28T05:54:09.744Z,71.66
2022-08-28T05:56:39.461Z,70.60
2022-08-28T05:59:07.696Z,70.35
2022-08-28T06:01:41.293Z,69.39
2022-08-28T06:04:19.104Z,68.36
2022-08-28T06:06:46.922Z,68.05
2022-08-28T06:09:20.159Z,67.77
2022-08-28T06:11:49.723Z,67.25
2022-08-28T06:14:20.636Z,66.60
2022-08-28T06:16:53.052Z,65.66
2022-08-28T06:19:23.116Z,65.54
2022-08-28T06:21:53.941Z,64.36
2022-08-28T06:24:21.619Z,64.11
2022-08-28T06:26:49.434Z,63.73
2022-08-28T06:29:21.022Z,63.52
2022-08-28T06:31:55.250Z,62.40
2022-08-28T06:34:23.089Z,61.16
2022-08-28T06:36:54.032Z,60.15
2022-08-28T06:39:22.517Z,58.63
2022-08-28T06:41:50.455Z,57.55
2022-08-28T06:44:20.247Z,56.63
2022-08-28T06:46:50.121Z,55.08
2022-08-28T06:49:17.939Z,53.26
2022-08-28T06:51:45.673Z,52.35
2022-08-28T06:54:17.268Z,52.11
2022-08-28T06:56:49.232Z,50.91
2022-08-28T06:59:16.831Z,49.92
2022-08-28T07:01:44.723Z,47.51
2022-08-28T07:04:14.574Z,47.63
2022-08-28T07:06:47.091Z,46.48
2022-08-28T07:09:16.105Z,47.48
2022-08-28T07:11:46.862Z,46.35
2022-08-28T07:14:14.345Z,44.90
2022-08-28T07:16:42.201Z,44.34
2022-08-28T07:19:12.041Z,43.60
2022-08-28T07:21:42.536Z,42.83
2022-08-28T07:24:12.417Z,43.96
2022-08-28T07:26:41.836Z,44.57
2022-08-28T07:29:11.456Z,43.83
2022-08-28T07:31:44.998Z,43.57
2022-08-28T07:34:14.010Z,43.97
2022-08-28T07:36:42.690Z,44.04
2022-08-28T07:39:12.907Z,43.25
2022-08-28T07:41:42.797Z,42.75
2022-08-28T07:44:32.020Z,43.35
2022-08-28T07:47:04.123Z,42.84
2022-08-28T07:49:33.875Z,42.60
2022-08-28T07:52:02.301Z,42.81
2022-08-28T07:54:30.014Z,43.42
2022-08-28T07:56:57.845Z,43.90
2022-08-28T07:59:25.465Z,43.14
2022-08-28T08:01:53.864Z,44.09
2022-08-28T08:04:23.695Z,43.78
2022-08-28T08:06:58.095Z,43.04
2022-08-28T08:09:27.140Z,43.33
2022-08-28T08:11:55.154Z,43.09
2022-08-28T08:14:23.500Z,43.19
2022-08-28T08:16:52.556Z,43.38
2022-08-28T08:19:20.611Z,43.41
2022-08-28T08:21:54.870Z,43.90
2022-08-28T08:24:28.494Z,44.27
2022-08-28T08:27:01.149Z,45.39
2022-08-28T08:29:35.892Z,46.14
2022-08-28T08:32:09.979Z,47.45
2022-08-28T08:34:40.511Z,47.93
2022-08-28T08:37:08.569Z,48.82
2022-08-28T08:39:37.699Z,48.80
2022-08-28T08:42:17.662Z,49.25
2022-08-28T08:44:48.413Z,50.42
2022-08-28T08:47:22.595Z,50.12
2022-08-28T08:50:01.206Z,50.46
2022-08-28T08:52:47.583Z,50.57
2022-08-28T08:55:21.124Z,50.85
2022-08-28T08:57:53.582Z,51.33
2022-08-28T09:00:21.235Z,52.04
2022-08-28T09:03:09.881Z,52.71
2022-08-28T09:06:02.115Z,52.69
2022-08-28T09:09:00.479Z,53.25
2022-08-28T09:11:34.318Z,52.67
2022-08-28T09:14:26.537Z,52.87
2022-08-28T09:16:58.362Z,53.07
2022-08-28T09:19:26.481Z,53.61
2022-08-28T09:21:54.471Z,53.52
2022-08-28T09:24:30.617Z,53.12
2022-08-28T09:27:23.865Z,52.89
2022-08-28T09:30:07.600Z,52.77
2022-08-28T09:32:44.416Z,52.80
2022-08-28T09:35:30.011Z,52.31
2022-08-28T09:38:20.717Z,52.25
2022-08-28T09:41:07.122Z,52.68
2022-08-28T09:43:38.007Z,52.83
2022-08-28T09:46:22.486Z,52.56
2022-08-28T09:48:52.542Z,52.45
2022-08-28T09:51:22.844Z,52.50
2022-08-28T09:53:56.577Z,52.00
2022-08-28T09:56:36.479Z,51.55
2022-08-28T09:59:16.296Z,51.69
2022-08-28T10:01:48.880Z,51.49
2022-08-28T10:04:58.938Z,51.66
2022-08-28T10:07:29.505Z,51.69
2022-08-28T10:10:17.080Z,51.48
2022-08-28T10:12:54.169Z,51.92
2022-08-28T10:15:49.606Z,52.10
2022-08-28T10:18:32.231Z,52.44
2022-08-28T10:21:30.566Z,52.79
2022-08-28T10:24:13.515Z,52.57
2022-08-28T10:27:08.776Z,52.27
2022-08-28T10:30:12.495Z,52.79
2022-08-28T10:32:55.321Z,52.90
2022-08-28T10:35:48.871Z,53.14
2022-08-28T10:38:32.457Z,53.25
2022-08-28T10:41:10.355Z,53.52
2022-08-28T10:43:51.609Z,53.29
2022-08-28T10:46:37.554Z,53.41
2022-08-28T10:49:27.103Z,53.72
2022-08-28T10:51:59.660Z,54.18
2022-08-28T10:55:03.446Z,54.29
2022-08-28T10:57:41.639Z,53.72
2022-08-28T11:00:19.380Z,54.21
2022-08-28T11:02:54.479Z,53.28
2022-08-28T11:05:24.817Z,52.60
2022-08-28T11:07:59.680Z,52.25
2022-08-28T11:10:30.238Z,52.61
2022-08-28T11:12:58.751Z,52.81
2022-08-28T11:15:36.341Z,52.30
2022-08-28T11:18:25.334Z,52.74
2022-08-28T11:21:11.109Z,52.05
2022-08-28T11:23:47.802Z,52.11
2022-08-28T11:26:30.293Z,52.29
2022-08-28T11:29:00.911Z,52.92
2022-08-28T11:31:32.635Z,53.36
2022-08-28T11:34:02.550Z,54.22
2022-08-28T11:36:30.065Z,54.40
2022-08-28T11:38:58.248Z,54.37
2022-08-28T11:41:50.683Z,54.80
2022-08-28T11:44:25.615Z,54.92
2022-08-28T11:46:56.815Z,55.61
2022-08-28T11:49:31.953Z,56.06
2022-08-28T11:52:17.791Z,56.02
2022-08-28T11:54:54.384Z,56.00
2022-08-28T11:57:40.882Z,56.26
2022-08-28T12:00:32.961Z,56.72
2022-08-28T12:03:06.792Z,57.55
2022-08-28T12:05:39.984Z,58.46
2022-08-28T12:08:09.774Z,58.74
2022-08-28T12:10:37.223Z,58.88
2022-08-28T12:13:07.560Z,59.88
2022-08-28T12:15:35.015Z,59.42
2022-08-28T12:18:14.954Z,55.50
2022-08-28T12:20:51.522Z,57.69
2022-08-28T12:23:31.732Z,57.67
2022-08-28T12:26:04.251Z,56.88
2022-08-28T12:28:45.695Z,56.29
2022-08-28T12:31:59.195Z,55.74
2022-08-28T12:34:42.147Z,55.15
2022-08-28T12:37:50.981Z,51.88
2022-08-28T12:40:26.395Z,51.87
2022-08-28T12:43:00.340Z,51.88
2022-08-28T12:46:00.333Z,50.67
2022-08-28T12:48:31.715Z,49.53
2022-08-28T12:51:04.217Z,49.34
2022-08-28T12:53:42.050Z,49.80
2022-08-28T12:56:14.532Z,49.85
2022-08-28T12:58:43.887Z,49.09
2022-08-28T13:01:37.548Z,48.78
2022-08-28T13:04:25.545Z,47.39
2022-08-28T13:07:00.375Z,47.31
2022-08-28T13:09:29.253Z,45.88
2022-08-28T13:11:57.057Z,46.62
2022-08-28T13:14:43.916Z,48.53
2022-08-28T13:17:13.709Z,48.85
2022-08-28T13:19:41.597Z,48.63
2022-08-28T13:22:33.852Z,46.32
2022-08-28T13:25:05.387Z,44.75
2022-08-28T13:27:33.227Z,45.39
2022-08-28T13:30:20.879Z,46.97
2022-08-28T13:33:02.501Z,50.70
2022-08-28T13:35:39.114Z,52.22
2022-08-28T13:38:10.367Z,52.24
2022-08-28T13:41:03.101Z,52.80
2022-08-28T13:43:44.567Z,53.06
2022-08-28T13:46:12.396Z,52.74
2022-08-28T13:48:40.880Z,52.56
2022-08-28T13:51:12.008Z,53.50
2022-08-28T13:53:44.292Z,54.52
2022-08-28T13:56:12.522Z,55.01
2022-08-28T13:58:40.259Z,53.86
2022-08-28T14:01:08.086Z,53.90
2022-08-28T14:03:35.799Z,54.66
2022-08-28T14:06:05.064Z,56.60
2022-08-28T14:08:32.985Z,57.27
2022-08-28T14:11:01.771Z,57.75
2022-08-28T14:13:29.543Z,66.46
2022-08-28T14:15:58.065Z,66.34
2022-08-28T14:18:26.299Z,63.95
2022-08-28T14:20:53.959Z,66.32
2022-08-28T14:23:21.681Z,63.69
2022-08-28T14:25:51.043Z,66.27
2022-08-28T14:28:18.839Z,68.31
2022-08-28T14:30:50.275Z,67.46
2022-08-28T14:33:20.598Z,69.53
2022-08-28T14:35:49.281Z,69.66
2022-08-28T14:38:17.402Z,71.39
2022-08-28T14:40:45.420Z,69.92
2022-08-28T14:43:14.430Z,68.86
2022-08-28T14:48:18.841Z,71.80
2022-08-28T14:50:50.066Z,72.07
2022-08-28T14:53:18.114Z,75.11
2022-08-28T14:55:49.192Z,73.48
2022-08-28T14:58:19.213Z,74.87
2022-08-28T15:00:50.505Z,75.39
2022-08-28T15:03:19.709Z,73.97
2022-08-28T15:05:47.935Z,73.28
2022-08-28T15:08:17.511Z,72.35
2022-08-28T15:10:45.277Z,70.99
2022-08-28T15:13:13.410Z,69.93
2022-08-28T15:15:43.354Z,70.46
2022-08-28T15:18:11.948Z,70.11
2022-08-28T15:20:42.312Z,69.28
2022-08-28T15:23:11.539Z,69.21
2022-08-28T15:25:39.541Z,70.97
2022-08-28T15:28:08.398Z,67.91
2022-08-28T15:30:36.972Z,67.54
2022-08-28T15:33:05.293Z,66.58
2022-08-28T15:35:34.527Z,66.77
2022-08-28T15:38:02.720Z,68.81
2022-08-28T15:40:49.459Z,66.98
2022-08-28T15:43:17.427Z,64.59
2022-08-28T15:45:46.226Z,62.20
2022-08-28T15:48:14.021Z,62.75
2022-08-28T15:50:42.045Z,62.67
2022-08-28T15:53:10.348Z,65.05
2022-08-28T15:55:37.906Z,65.64
2022-08-28T16:00:41.091Z,67.06
2022-08-28T16:03:08.864Z,66.68
2022-08-28T16:05:39.613Z,67.98
2022-08-28T16:08:10.045Z,67.65
2022-08-28T16:10:38.066Z,68.84
2022-08-28T16:13:06.765Z,69.67
2022-08-28T16:15:34.837Z,69.11
2022-08-28T16:18:02.414Z,70.33
2022-08-28T16:20:29.946Z,72.46
2022-08-28T16:22:57.469Z,72.51
2022-08-28T16:25:24.979Z,73.17
2022-08-28T16:27:52.542Z,72.51
2022-08-28T16:30:21.204Z,72.51
2022-08-28T16:32:52.350Z,71.89
2022-08-28T16:35:22.130Z,72.19
2022-08-28T16:37:50.439Z,71.97
2022-08-28T16:40:18.455Z,71.29
2022-08-28T16:42:51.570Z,71.77
2022-08-28T16:45:20.405Z,71.90
2022-08-28T16:47:49.134Z,71.72
2022-08-28T16:50:16.691Z,71.36
2022-08-28T16:52:44.458Z,73.25
2022-08-28T16:55:13.282Z,74.03
2022-08-28T16:57:41.285Z,75.73
2022-08-28T17:00:13.533Z,75.09
2022-08-28T17:02:42.488Z,75.37
2022-08-28T17:05:13.088Z,75.03
2022-08-28T17:07:41.127Z,75.15
2022-08-28T17:10:10.697Z,75.95
2022-08-28T17:12:39.365Z,75.32
2022-08-28T17:15:08.726Z,76.02
2022-08-28T17:17:40.051Z,76.84
2022-08-28T17:20:29.363Z,77.60
2022-08-28T17:22:57.186Z,77.32
2022-08-28T17:25:25.933Z,77.71
2022-08-28T17:27:53.770Z,79.57
2022-08-28T17:30:21.929Z,78.72
2022-08-28T17:32:50.057Z,78.39
2022-08-28T17:35:18.152Z,77.71
2022-08-28T17:37:45.976Z,78.53
2022-08-28T17:40:16.782Z,79.33
2022-08-28T17:42:48.025Z,80.29
2022-08-28T17:45:15.945Z,80.99
2022-08-28T17:47:43.614Z,82.09
2022-08-28T17:50:11.926Z,81.45
2022-08-28T17:52:43.112Z,80.27
2022-08-28T17:55:10.876Z,80.16
2022-08-28T17:57:38.732Z,81.87
2022-08-28T18:00:09.266Z,80.82
2022-08-28T18:02:37.052Z,80.21
2022-08-28T18:05:05.724Z,78.30
2022-08-28T18:07:33.992Z,78.25
2022-08-28T18:10:01.915Z,77.70
2022-08-28T18:12:30.343Z,77.48
2022-08-28T18:14:58.084Z,76.37
2022-08-28T18:17:25.733Z,75.34
2022-08-28T18:19:54.208Z,75.23
2022-08-28T18:22:23.661Z,74.91
2022-08-28T18:24:54.493Z,75.17
2022-08-28T18:27:22.818Z,75.92
2022-08-28T18:29:50.657Z,75.65
2022-08-28T18:32:19.202Z,75.01
2022-08-28T18:34:46.958Z,75.25
2022-08-28T18:37:14.753Z,75.18
2022-08-28T18:39:43.228Z,75.33
2022-08-28T18:42:11.939Z,75.09
2022-08-28T18:44:39.693Z,74.90
2022-08-28T18:47:07.464Z,76.15
2022-08-28T18:49:35.215Z,76.15
2022-08-28T18:52:03.386Z,76.33
2022-08-28T18:54:31.399Z,76.24
2022-08-28T18:57:03.921Z,76.95
2022-08-28T18:59:33.391Z,77.10
2022-08-28T19:02:01.711Z,76.92
2022-08-28T19:04:29.516Z,78.08
2022-08-28T19:06:57.391Z,80.06
2022-08-28T19:09:32.102Z,80.07
2022-08-28T19:12:01.043Z,80.90
2022-08-28T19:14:28.892Z,80.86
2022-08-28T19:16:56.838Z,79.76
2022-08-28T19:19:24.839Z,79.59
2022-08-28T19:21:52.560Z,80.12
2022-08-28T19:24:22.621Z,80.82
2022-08-28T19:26:50.254Z,82.85
2022-08-28T19:29:18.152Z,82.79
2022-08-28T19:31:46.562Z,82.52
2022-08-28T19:34:14.439Z,82.46
2022-08-28T19:36:42.453Z,81.60
2022-08-28T19:39:10.314Z,81.25
2022-08-28T19:41:38.910Z,81.24
2022-08-28T19:44:07.596Z,82.05
2022-08-28T19:46:36.315Z,81.20
2022-08-28T19:49:04.959Z,80.83
2022-08-28T19:51:33.045Z,80.38
2022-08-28T19:54:00.876Z,80.59
2022-08-28T19:56:30.399Z,81.18
2022-08-28T19:59:01.476Z,81.47
2022-08-28T20:01:32.829Z,81.44
2022-08-28T20:04:00.715Z,83.60
2022-08-28T20:06:31.617Z,82.72
2022-08-28T20:09:01.305Z,83.45
2022-08-28T20:11:30.428Z,83.42
2022-08-28T20:14:04.439Z,84.08
2022-08-28T20:16:37.000Z,83.15
2022-08-28T20:19:07.848Z,82.93
2022-08-28T20:21:38.323Z,82.52
2022-08-28T20:24:10.315Z,82.73
2022-08-28T20:26:38.157Z,85.09
2022-08-28T20:29:07.880Z,84.23
2022-08-28T20:31:40.548Z,84.08
2022-08-28T20:34:09.830Z,84.60
2022-08-28T20:36:37.783Z,83.61
2022-08-28T20:39:07.411Z,82.77
2022-08-28T20:41:37.257Z,82.26
2022-08-28T20:44:07.730Z,81.74
2022-08-28T20:46:40.685Z,82.09
2022-08-28T20:49:11.242Z,82.50
2022-08-28T20:51:53.153Z,82.83
2022-08-28T20:54:24.465Z,82.82
2022-08-28T20:56:53.593Z,82.67
2022-08-28T20:59:21.891Z,82.90
2022-08-28T21:01:51.477Z,83.45
2022-08-28T21:04:19.885Z,83.51
2022-08-28T21:06:47.677Z,84.08
2022-08-28T21:09:16.433Z,84.41
2022-08-28T21:11:44.157Z,84.76
2022-08-28T21:14:11.949Z,85.72
2022-08-28T21:16:40.539Z,86.37
2022-08-28T21:19:16.694Z,86.57
2022-08-28T21:21:45.378Z,86.50
2022-08-28T21:24:15.441Z,86.06
2022-08-28T21:26:48.644Z,86.13
2022-08-28T21:29:20.023Z,86.45
2022-08-28T21:31:50.160Z,86.36
2022-08-28T21:34:19.500Z,87.13
2022-08-28T21:36:50.565Z,87.60
2022-08-28T21:39:20.720Z,87.81
2022-08-28T21:41:49.451Z,87.92
2022-08-28T21:44:17.662Z,88.03
2022-08-28T21:46:45.666Z,88.00
2022-08-28T21:49:13.215Z,87.44
2022-08-28T21:51:40.856Z,86.59
2022-08-28T21:54:08.669Z,87.02
2022-08-28T21:56:36.229Z,87.59
2022-08-28T21:59:04.087Z,87.68
2022-08-28T22:01:32.133Z,87.20
2022-08-28T22:03:59.787Z,87.39
2022-08-28T22:06:27.347Z,88.40
2022-08-28T22:08:55.987Z,87.03
2022-08-28T22:11:25.419Z,87.01
2022-08-28T22:13:56.896Z,87.44
2022-08-28T22:16:25.671Z,88.17
2022-08-28T22:18:53.815Z,87.51
2022-08-28T22:21:43.775Z,86.63
2022-08-28T22:24:13.341Z,86.56
2022-08-28T22:26:42.533Z,86.36
2022-08-28T22:29:11.541Z,86.66
2022-08-28T22:31:43.898Z,85.83
2022-08-28T22:34:13.818Z,85.76
2022-08-28T22:36:41.405Z,85.28
2022-08-28T22:39:09.362Z,85.19
2022-08-28T22:41:37.644Z,84.76
2022-08-28T22:44:05.499Z,85.27
2022-08-28T22:46:33.252Z,85.10
2022-08-28T22:49:00.924Z,84.88
2022-08-28T22:51:28.430Z,84.38
2022-08-28T22:53:56.436Z,84.02
2022-08-28T22:56:23.991Z,84.02
2022-08-28T22:58:51.459Z,84.40
2022-08-28T23:01:22.302Z,84.34
2022-08-28T23:03:50.232Z,84.62
2022-08-28T23:06:18.568Z,85.33
2022-08-28T23:08:46.096Z,86.78
2022-08-28T23:11:13.800Z,87.79
2022-08-28T23:13:41.448Z,88.68
2022-08-28T23:16:09.012Z,90.26
2022-08-28T23:19:06.014Z,91.27
2022-08-28T23:21:26.444Z,91.49
2022-08-28T23:23:55.137Z,92.26
2022-08-28T23:26:23.102Z,92.11
2022-08-28T23:28:51.145Z,92.35
2022-08-28T23:31:18.861Z,91.78
2022-08-28T23:33:47.048Z,92.19
2022-08-28T23:36:15.391Z,91.87
2022-08-28T23:38:45.054Z,91.60
2022-08-28T23:41:13.318Z,91.43
2022-08-28T23:43:40.948Z,90.97
2022-08-28T23:46:13.546Z,91.50
2022-08-28T23:48:41.411Z,91.75
2022-08-28T23:51:10.139Z,91.32
2022-08-28T23:53:40.936Z,91.12
2022-08-28T23:56:09.582Z,90.93
2022-08-28T23:58:37.331Z,90.88
